Time;durP1;ratioP1;P1;durP2;ratioP2;P2;SDS_P1;SDS_P2;PMS_P1;PMS_P2;Temp;Humidity;BMP_temperature;BMP_pressure;BME280_temperature;BME280_humidity;BME280_pressure;Samples;Min_cycle;Max_cycle;Signal;HPM_P1;HPM_P2
2022/11/08 00:02:41;;;;;;;7.25;3.08;;;;;;;;;;5043216;28;20060;-55
2022/11/08 00:16:13;;;;;;;5.63;3.08;;;;;;;;;;5046126;28;20064;-52
2022/11/08 00:18:41;;;;;;;7.30;2.92;;;;;;;;;;5044436;28;20057;-50
2022/11/08 00:21:09;;;;;;;6.38;2.88;;;;;;;;;;5051216;28;20052;-50
2022/11/08 00:23:36;;;;;;;7.40;3.45;;;;;;;;;;5038294;28;20063;-52
2022/11/08 00:26:05;;;;;;;6.28;2.70;;;;;;;;;;5033746;28;20041;-52
2022/11/08 00:28:33;;;;;;;5.07;2.72;;;;;;;;;;5049063;28;20099;-53
2022/11/08 00:31:04;;;;;;;9.57;3.65;;;;;;;;;;5043693;28;20060;-53
2022/11/08 00:33:34;;;;;;;6.63;3.30;;;;;;;;;;5037645;28;20057;-52
2022/11/08 00:36:02;;;;;;;8.18;3.75;;;;;;;;;;5043412;28;20046;-51
2022/11/08 00:38:29;;;;;;;5.60;2.70;;;;;;;;;;5033910;28;20401;-51
2022/11/08 00:40:56;;;;;;;6.65;3.78;;;;;;;;;;5032176;28;20053;-53
2022/11/08 00:43:23;;;;;;;5.88;3.13;;;;;;;;;;5033694;28;20045;-51
2022/11/08 00:45:51;;;;;;;6.40;3.08;;;;;;;;;;5032322;28;20045;-52
2022/11/08 00:48:18;;;;;;;6.85;3.10;;;;;;;;;;5033897;28;20064;-52
2022/11/08 00:50:48;;;;;;;5.80;3.13;;;;;;;;;;5040768;28;20063;-52
2022/11/08 00:53:16;;;;;;;6.10;3.40;;;;;;;;;;5034384;28;20057;-53
2022/11/08 00:55:45;;;;;;;6.90;3.35;;;;;;;;;;5032480;28;20049;-51
2022/11/08 00:58:13;;;;;;;9.10;3.25;;;;;;;;;;5032703;28;20081;-53
2022/11/08 01:00:43;;;;;;;6.32;3.58;;;;;;;;;;5044554;28;20056;-50
2022/11/08 01:03:22;;;;;;;7.28;3.30;;;;;;;;;;5042792;28;20139;-52
2022/11/08 01:05:56;;;;;;;6.80;2.90;;;;;;;;;;5046719;28;20041;-51
2022/11/08 01:08:24;;;;;;;5.05;3.03;;;;;;;;;;5032279;28;20454;-54
2022/11/08 01:10:52;;;;;;;6.63;3.17;;;;;;;;;;5036659;28;20465;-51
2022/11/08 01:13:20;;;;;;;6.53;3.10;;;;;;;;;;5039611;28;20088;-53
2022/11/08 01:15:48;;;;;;;7.63;2.92;;;;;;;;;;5034218;28;20084;-53
2022/11/08 01:18:17;;;;;;;5.88;3.13;;;;;;;;;;5043528;28;20082;-52
2022/11/08 01:20:48;;;;;;;7.40;3.00;;;;;;;;;;5049234;28;20071;-50
2022/11/08 01:23:23;;;;;;;8.25;2.83;;;;;;;;;;5040506;28;20099;-53
2022/11/08 01:25:50;;;;;;;7.03;3.35;;;;;;;;;;5032642;28;20052;-51
2022/11/08 01:28:18;;;;;;;7.53;3.22;;;;;;;;;;5033040;28;20486;-50
2022/11/08 01:30:46;;;;;;;5.97;3.35;;;;;;;;;;5052342;28;20052;-51
2022/11/08 01:33:16;;;;;;;10.45;3.17;;;;;;;;;;5040185;28;20059;-52
2022/11/08 01:35:47;;;;;;;5.70;3.00;;;;;;;;;;5052115;28;20452;-53
2022/11/08 01:38:17;;;;;;;6.45;3.10;;;;;;;;;;5038754;28;20056;-54
2022/11/08 01:40:47;;;;;;;6.93;3.00;;;;;;;;;;5041759;28;20083;-51
2022/11/08 01:43:33;;;;;;;6.00;3.00;;;;;;;;;;5037309;28;20045;-53
2022/11/08 01:46:25;;;;;;;5.20;3.05;;;;;;;;;;5050748;28;20055;-51
2022/11/08 01:48:54;;;;;;;6.47;2.92;;;;;;;;;;5037518;28;20075;-52
2022/11/08 01:51:23;;;;;;;6.30;2.80;;;;;;;;;;5039004;28;20162;-53
2022/11/08 01:53:53;;;;;;;8.73;3.63;;;;;;;;;;5040347;28;20046;-53
2022/11/08 01:56:23;;;;;;;7.47;3.50;;;;;;;;;;5036763;28;20045;-54
2022/11/08 01:58:53;;;;;;;5.10;3.38;;;;;;;;;;5035079;28;20061;-54
2022/11/08 02:01:26;;;;;;;8.70;3.58;;;;;;;;;;5035514;28;20053;-52
2022/11/08 02:03:53;;;;;;;10.25;3.90;;;;;;;;;;5041087;28;20103;-53
2022/11/08 02:06:21;;;;;;;7.72;3.60;;;;;;;;;;5034401;28;20458;-51
2022/11/08 02:08:49;;;;;;;5.18;2.88;;;;;;;;;;5034562;28;20064;-49
2022/11/08 02:11:18;;;;;;;9.73;3.33;;;;;;;;;;5042249;28;20048;-51
2022/11/08 02:14:01;;;;;;;7.90;3.30;;;;;;;;;;5036355;28;20469;-50
2022/11/08 02:16:29;;;;;;;6.88;3.80;;;;;;;;;;5039538;28;20131;-50
2022/11/08 02:18:58;;;;;;;8.00;4.07;;;;;;;;;;5043142;28;20351;-52
2022/11/08 02:21:28;;;;;;;7.22;4.03;;;;;;;;;;5046538;28;20059;-52
2022/11/08 02:24:09;;;;;;;5.00;3.63;;;;;;;;;;5037975;28;20063;-53
2022/11/08 02:26:38;;;;;;;7.47;3.67;;;;;;;;;;5036243;28;20053;-51
2022/11/08 02:29:26;;;;;;;6.30;3.72;;;;;;;;;;5045015;28;20049;-54
2022/11/08 02:31:53;;;;;;;8.50;4.00;;;;;;;;;;5052559;28;20080;-54
2022/11/08 02:34:21;;;;;;;10.02;4.05;;;;;;;;;;5055490;28;20064;-54
2022/11/08 02:36:50;;;;;;;6.75;3.97;;;;;;;;;;5042070;28;20083;-53
2022/11/08 02:39:27;;;;;;;6.97;3.63;;;;;;;;;;5044187;28;20057;-51
2022/11/08 02:41:55;;;;;;;5.65;4.00;;;;;;;;;;5036550;28;20080;-51
2022/11/08 02:44:23;;;;;;;9.13;4.30;;;;;;;;;;5049649;28;20053;-54
2022/11/08 02:46:51;;;;;;;8.05;3.63;;;;;;;;;;5038449;28;20050;-54
2022/11/08 02:49:17;;;;;;;6.72;3.75;;;;;;;;;;5041136;28;20050;-51
2022/11/08 02:51:44;;;;;;;7.00;3.65;;;;;;;;;;5049208;28;20059;-51
2022/11/08 02:54:12;;;;;;;6.13;4.13;;;;;;;;;;5058415;28;20061;-52
2022/11/08 02:56:41;;;;;;;8.32;4.30;;;;;;;;;;5055156;28;20045;-50
2022/11/08 02:59:11;;;;;;;7.25;3.55;;;;;;;;;;5038810;28;20053;-51
2022/11/08 03:01:39;;;;;;;8.13;4.20;;;;;;;;;;5041414;28;20063;-51
2022/11/08 03:04:06;;;;;;;5.28;3.40;;;;;;;;;;5041887;28;20053;-54
2022/11/08 03:06:32;;;;;;;6.43;3.75;;;;;;;;;;5039292;28;20057;-54
2022/11/08 03:09:03;;;;;;;6.10;3.53;;;;;;;;;;5048805;28;20051;-53
2022/11/08 03:11:29;;;;;;;7.55;3.90;;;;;;;;;;5054216;28;20465;-51
2022/11/08 03:14:00;;;;;;;6.63;3.85;;;;;;;;;;5040339;28;20048;-54
2022/11/08 03:16:29;;;;;;;9.10;3.85;;;;;;;;;;5044572;28;20056;-52
2022/11/08 03:18:59;;;;;;;8.05;3.80;;;;;;;;;;5053278;28;20554;-52
2022/11/08 03:21:27;;;;;;;5.85;4.00;;;;;;;;;;5054211;28;20049;-51
2022/11/08 03:23:57;;;;;;;8.38;3.65;;;;;;;;;;5042577;28;20049;-54
2022/11/08 03:26:24;;;;;;;7.40;3.58;;;;;;;;;;5045081;28;20367;-51
2022/11/08 03:28:52;;;;;;;6.80;3.75;;;;;;;;;;5034646;28;20052;-52
2022/11/08 03:31:21;;;;;;;8.40;3.97;;;;;;;;;;5044721;28;20380;-53
2022/11/08 03:33:48;;;;;;;5.68;3.80;;;;;;;;;;5054103;28;20045;-53
2022/11/08 03:36:18;;;;;;;7.30;3.58;;;;;;;;;;5054350;28;20060;-52
2022/11/08 03:38:45;;;;;;;7.35;3.90;;;;;;;;;;5035457;28;20347;-53
2022/11/08 03:41:16;;;;;;;7.35;4.32;;;;;;;;;;5034578;28;20053;-51
2022/11/08 03:43:44;;;;;;;7.32;3.95;;;;;;;;;;5038974;28;21869;-51
2022/11/08 03:46:11;;;;;;;6.97;3.50;;;;;;;;;;5053416;28;20053;-51
2022/11/08 03:48:42;;;;;;;7.88;4.03;;;;;;;;;;5052774;28;20056;-51
2022/11/08 03:51:09;;;;;;;7.28;3.40;;;;;;;;;;5041466;28;20045;-51
2022/11/08 03:53:37;;;;;;;10.25;3.65;;;;;;;;;;5051311;28;20049;-50
2022/11/08 03:56:07;;;;;;;7.78;3.40;;;;;;;;;;5034632;28;20061;-50
2022/11/08 03:58:34;;;;;;;8.95;3.47;;;;;;;;;;5035627;28;20361;-50
2022/11/08 04:01:03;;;;;;;7.68;3.85;;;;;;;;;;5044858;28;20491;-53
2022/11/08 04:03:33;;;;;;;8.95;4.07;;;;;;;;;;5041288;28;20076;-53
2022/11/08 04:06:01;;;;;;;8.85;4.43;;;;;;;;;;5052947;28;20464;-53
2022/11/08 04:08:27;;;;;;;5.72;3.85;;;;;;;;;;5040261;28;20049;-53
2022/11/08 04:10:55;;;;;;;10.60;4.60;;;;;;;;;;5036255;28;20670;-54
2022/11/08 04:16:19;;;;;;;10.93;4.88;;;;;;;;;;4968658;28;20238;-51
2022/11/08 04:21:37;;;;;;;11.17;4.73;;;;;;;;;;4953426;28;20160;-51
2022/11/08 04:24:04;;;;;;;6.85;3.97;;;;;;;;;;4963995;28;20054;-51
2022/11/08 04:26:32;;;;;;;7.70;3.90;;;;;;;;;;4953436;28;20050;-53
2022/11/08 04:29:01;;;;;;;6.45;3.58;;;;;;;;;;4963935;28;20065;-54
2022/11/08 04:31:31;;;;;;;7.63;4.50;;;;;;;;;;4960796;28;20078;-50
2022/11/08 04:33:59;;;;;;;6.70;3.40;;;;;;;;;;4952933;28;20142;-51
2022/11/08 04:36:26;;;;;;;6.75;2.83;;;;;;;;;;4963555;28;20054;-50
2022/11/08 04:38:56;;;;;;;6.05;3.30;;;;;;;;;;4954417;28;20051;-51
2022/11/08 04:41:24;;;;;;;8.50;3.20;;;;;;;;;;4964534;28;20669;-50
2022/11/08 04:43:53;;;;;;;7.43;3.20;;;;;;;;;;4998040;28;20053;-52
2022/11/08 04:46:29;;;;;;;5.25;3.38;;;;;;;;;;5051816;28;20048;-52
2022/11/08 04:48:55;;;;;;;;;;;;;;;;;;5041393;28;20064;-54
2022/11/08 04:51:23;;;;;;;;;;;;;;;;;;5046205;28;19928;-51
2022/11/08 04:53:51;;;;;;;5.60;3.10;;;;;;;;;;5047353;28;19925;-52
2022/11/08 04:56:23;;;;;;;6.10;2.65;;;;;;;;;;5045504;28;20064;-54
2022/11/08 04:58:52;;;;;;;5.18;2.78;;;;;;;;;;5037407;28;20059;-54
2022/11/08 05:01:23;;;;;;;6.30;3.47;;;;;;;;;;5046112;28;20056;-53
2022/11/08 05:03:49;;;;;;;5.63;2.90;;;;;;;;;;5041313;28;20140;-51
2022/11/08 05:06:19;;;;;;;11.93;3.95;;;;;;;;;;5038659;28;20064;-53
2022/11/08 05:08:47;;;;;;;5.28;3.20;;;;;;;;;;5033557;28;20049;-54
2022/11/08 05:11:15;;;;;;;5.55;2.95;;;;;;;;;;5037259;28;20080;-51
2022/11/08 05:13:44;;;;;;;5.55;4.15;;;;;;;;;;5049882;28;20063;-50
2022/11/08 05:16:14;;;;;;;8.45;2.95;;;;;;;;;;5039867;28;20049;-50
2022/11/08 05:18:41;;;;;;;6.60;3.35;;;;;;;;;;5042742;28;20473;-50
2022/11/08 05:23:56;;;;;;;6.85;3.10;;;;;;;;;;5046244;28;20063;-52
2022/11/08 05:26:25;;;;;;;7.50;2.80;;;;;;;;;;5039073;28;20053;-51
2022/11/08 05:28:56;;;;;;;7.85;3.40;;;;;;;;;;5037899;28;20057;-51
2022/11/08 05:31:26;;;;;;;5.55;2.88;;;;;;;;;;5046103;28;20074;-54
2022/11/08 05:33:56;;;;;;;7.18;3.38;;;;;;;;;;5035215;28;20050;-51
2022/11/08 05:36:23;;;;;;;4.50;2.97;;;;;;;;;;5043714;28;20052;-53
2022/11/08 05:38:53;;;;;;;7.00;3.13;;;;;;;;;;5045696;28;20061;-54
2022/11/08 05:41:22;;;;;;;6.90;3.08;;;;;;;;;;5036872;28;20049;-52
2022/11/08 05:43:50;;;;;;;4.75;2.85;;;;;;;;;;5033539;28;20053;-52
2022/11/08 05:46:21;;;;;;;5.20;2.83;;;;;;;;;;5036556;28;20064;-50
2022/11/08 05:48:49;;;;;;;6.70;3.40;;;;;;;;;;5045221;28;20060;-51
2022/11/08 05:51:17;;;;;;;4.43;2.67;;;;;;;;;;5040375;28;20049;-52
2022/11/08 05:53:53;;;;;;;7.45;3.03;;;;;;;;;;5051493;28;20069;-53
2022/11/08 05:56:23;;;;;;;4.63;3.25;;;;;;;;;;5049911;28;20049;-50
2022/11/08 05:58:56;;;;;;;5.40;3.10;;;;;;;;;;5036889;28;20621;-50
2022/11/08 06:01:29;;;;;;;6.93;3.17;;;;;;;;;;5041409;28;20358;-50
2022/11/08 06:03:57;;;;;;;9.10;3.40;;;;;;;;;;5036407;28;20049;-53
2022/11/08 06:06:25;;;;;;;6.32;2.72;;;;;;;;;;5052085;28;20056;-52
2022/11/08 06:08:53;;;;;;;6.78;3.22;;;;;;;;;;5054834;28;20381;-51
2022/11/08 06:11:28;;;;;;;5.38;3.42;;;;;;;;;;5055477;28;20068;-54
2022/11/08 06:13:56;;;;;;;;;;;;;;;;;;5055528;28;20105;-52
2022/11/08 06:16:24;;;;;;;7.28;3.15;;;;;;;;;;5054829;28;19925;-54
2022/11/08 06:18:56;;;;;;;7.57;3.33;;;;;;;;;;5055313;28;20044;-50
2022/11/08 06:21:26;;;;;;;6.07;3.15;;;;;;;;;;5048478;28;20045;-50
2022/11/08 06:23:54;;;;;;;5.97;3.42;;;;;;;;;;5048687;28;20084;-53
2022/11/08 06:26:22;;;;;;;5.25;3.15;;;;;;;;;;5047055;28;20049;-54
2022/11/08 06:28:52;;;;;;;5.95;3.25;;;;;;;;;;5044715;28;20048;-50
2022/11/08 06:31:20;;;;;;;6.60;3.20;;;;;;;;;;5054901;28;20045;-51
2022/11/08 06:33:47;;;;;;;8.00;3.00;;;;;;;;;;5054607;28;20064;-52
2022/11/08 06:36:27;;;;;;;7.57;3.03;;;;;;;;;;5054937;28;20063;-52
2022/11/08 06:38:55;;;;;;;6.75;3.55;;;;;;;;;;5035504;28;20064;-54
2022/11/08 06:41:22;;;;;;;6.38;3.35;;;;;;;;;;5049484;28;20052;-51
2022/11/08 06:43:50;;;;;;;5.28;3.00;;;;;;;;;;5044022;28;20045;-51
2022/11/08 06:46:20;;;;;;;7.93;3.22;;;;;;;;;;5050207;28;20046;-54
2022/11/08 06:48:50;;;;;;;7.72;3.53;;;;;;;;;;5053070;28;20073;-53
2022/11/08 06:51:22;;;;;;;5.88;3.10;;;;;;;;;;5052382;28;20095;-50
2022/11/08 06:53:50;;;;;;;5.75;3.03;;;;;;;;;;5053828;28;20485;-51
2022/11/08 06:56:20;;;;;;;8.63;3.35;;;;;;;;;;5054003;28;20055;-54
2022/11/08 06:58:47;;;;;;;6.78;3.08;;;;;;;;;;5046259;28;20462;-50
2022/11/08 07:01:15;;;;;;;9.10;3.03;;;;;;;;;;5040164;28;20057;-51
2022/11/08 07:03:42;;;;;;;5.82;2.85;;;;;;;;;;5034836;28;20053;-53
2022/11/08 07:06:09;;;;;;;6.18;2.85;;;;;;;;;;5033634;28;20462;-53
2022/11/08 07:08:44;;;;;;;6.90;3.58;;;;;;;;;;5040671;28;20469;-51
2022/11/08 07:11:11;;;;;;;6.10;3.10;;;;;;;;;;5045030;28;20454;-54
2022/11/08 07:13:41;;;;;;;6.05;3.00;;;;;;;;;;5045208;28;20300;-52
2022/11/08 07:16:08;;;;;;;6.22;2.55;;;;;;;;;;5037056;28;20056;-53
2022/11/08 07:18:36;;;;;;;5.93;3.03;;;;;;;;;;5043460;28;20058;-52
2022/11/08 07:21:03;;;;;;;5.78;2.58;;;;;;;;;;5045849;28;21473;-51
2022/11/08 07:23:32;;;;;;;9.55;3.13;;;;;;;;;;5045615;28;20049;-52
2022/11/08 07:26:15;;;;;;;8.65;3.38;;;;;;;;;;5037883;28;20048;-52
2022/11/08 07:28:42;;;;;;;8.05;3.83;;;;;;;;;;5044018;28;20068;-49
2022/11/08 07:31:10;;;;;;;11.30;3.95;;;;;;;;;;5039891;28;20052;-50
2022/11/08 07:33:36;;;;;;;7.18;3.22;;;;;;;;;;5051070;28;20464;-48
2022/11/08 07:36:04;;;;;;;6.38;3.25;;;;;;;;;;5047259;28;20076;-49
2022/11/08 07:38:31;;;;;;;7.70;3.63;;;;;;;;;;5004562;28;1027197;-49
2022/11/08 07:40:59;;;;;;;8.52;3.30;;;;;;;;;;5039883;28;20056;-49
2022/11/08 07:43:40;;;;;;;6.13;3.28;;;;;;;;;;5052076;28;20064;-51
2022/11/08 07:46:11;;;;;;;7.43;2.80;;;;;;;;;;5042608;28;20048;-54
2022/11/08 07:48:38;;;;;;;6.85;2.80;;;;;;;;;;5051052;28;20049;-51
2022/11/08 07:51:06;;;;;;;8.50;3.08;;;;;;;;;;5040184;28;20048;-53
2022/11/08 07:53:32;;;;;;;10.75;3.22;;;;;;;;;;5044484;28;20072;-51
2022/11/08 07:56:03;;;;;;;8.82;3.85;;;;;;;;;;5047790;28;20068;-55
2022/11/08 07:58:42;;;;;;;6.63;2.90;;;;;;;;;;5041807;28;20038;-51
2022/11/08 08:01:10;;;;;;;4.35;2.67;;;;;;;;;;5053258;28;20061;-53
2022/11/08 08:03:36;;;;;;;9.10;3.30;;;;;;;;;;5053216;28;20052;-51
2022/11/08 08:06:04;;;;;;;8.13;2.92;;;;;;;;;;5040667;28;20045;-50
2022/11/08 08:08:32;;;;;;;6.28;3.28;;;;;;;;;;5050446;28;20048;-50
2022/11/08 08:11:00;;;;;;;7.07;3.83;;;;;;;;;;5046342;28;20052;-49
2022/11/08 08:13:36;;;;;;;6.10;2.72;;;;;;;;;;5046208;28;20056;-54
2022/11/08 08:16:05;;;;;;;9.15;2.90;;;;;;;;;;5034464;28;20168;-52
2022/11/08 08:18:32;;;;;;;7.00;2.90;;;;;;;;;;5037605;28;20674;-49
2022/11/08 08:21:01;;;;;;;8.20;2.97;;;;;;;;;;5053089;28;20053;-49
2022/11/08 08:23:27;;;;;;;4.97;3.05;;;;;;;;;;5048552;28;20052;-50
2022/11/08 08:25:55;;;;;;;8.18;4.60;;;;;;;;;;5044559;28;20060;-53
2022/11/08 08:28:25;;;;;;;8.98;2.95;;;;;;;;;;5042213;28;20049;-50
2022/11/08 08:33:45;;;;;;;5.45;2.88;;;;;;;;;;5035467;28;20084;-50
2022/11/08 08:36:13;;;;;;;18.40;3.53;;;;;;;;;;5040532;28;20382;-49
2022/11/08 08:38:40;;;;;;;6.25;3.17;;;;;;;;;;5038121;28;20119;-52
2022/11/08 08:41:08;;;;;;;7.10;3.47;;;;;;;;;;5038847;28;20053;-50
2022/11/08 08:43:38;;;;;;;6.00;3.22;;;;;;;;;;5045422;28;20049;-52
2022/11/08 08:46:06;;;;;;;6.55;3.80;;;;;;;;;;5045108;28;20145;-49
2022/11/08 08:48:39;;;;;;;7.00;3.45;;;;;;;;;;5037963;28;20049;-50
2022/11/08 08:51:09;;;;;;;7.65;3.08;;;;;;;;;;5042702;28;20068;-50
2022/11/08 08:53:39;;;;;;;6.38;3.45;;;;;;;;;;5048955;28;20450;-52
2022/11/08 08:56:08;;;;;;;11.40;4.07;;;;;;;;;;5052265;28;20052;-51
2022/11/08 08:58:36;;;;;;;6.20;3.75;;;;;;;;;;5052166;28;20055;-52
2022/11/08 09:01:08;;;;;;;11.13;3.95;;;;;;;;;;5052308;28;20094;-52
2022/11/08 09:03:48;;;;;;;7.50;3.25;;;;;;;;;;5043139;28;20111;-52
2022/11/08 09:06:16;;;;;;;9.63;3.58;;;;;;;;;;5042137;28;20048;-50
2022/11/08 09:08:42;;;;;;;8.50;3.55;;;;;;;;;;5051357;28;20087;-51
2022/11/08 09:11:10;;;;;;;7.95;4.05;;;;;;;;;;5051205;28;20476;-56
2022/11/08 09:13:39;;;;;;;9.88;3.35;;;;;;;;;;5052264;28;20076;-56
2022/11/08 09:16:09;;;;;;;7.35;3.13;;;;;;;;;;5046435;28;20048;-56
2022/11/08 09:18:49;;;;;;;8.48;3.35;;;;;;;;;;5040337;28;20056;-47
2022/11/08 09:21:17;;;;;;;11.52;3.53;;;;;;;;;;5035642;28;20060;-47
2022/11/08 09:23:43;;;;;;;7.60;3.78;;;;;;;;;;5046904;28;20063;-45
2022/11/08 09:26:13;;;;;;;6.55;3.55;;;;;;;;;;5043319;28;20049;-46
2022/11/08 09:28:42;;;;;;;7.70;3.63;;;;;;;;;;5038336;28;20373;-47
2022/11/08 09:31:11;;;;;;;6.93;3.38;;;;;;;;;;5050894;28;20453;-48
2022/11/08 09:33:41;;;;;;;7.45;3.38;;;;;;;;;;5041916;28;20049;-50
2022/11/08 09:36:12;;;;;;;7.47;3.17;;;;;;;;;;5037731;28;20044;-51
2022/11/08 09:38:41;;;;;;;7.68;3.83;;;;;;;;;;5040587;28;20483;-50
2022/11/08 09:41:19;;;;;;;4.50;2.80;;;;;;;;;;5051462;28;20682;-50
2022/11/08 09:44:06;;;;;;;5.40;3.30;;;;;;;;;;5050860;28;20048;-51
2022/11/08 09:46:39;;;;;;;8.77;4.28;;;;;;;;;;5039253;28;20045;-49
2022/11/08 09:49:14;;;;;;;8.48;3.20;;;;;;;;;;5042613;28;20069;-52
2022/11/08 09:51:42;;;;;;;5.93;3.00;;;;;;;;;;5044115;28;20060;-50
2022/11/08 09:54:13;;;;;;;8.10;3.03;;;;;;;;;;5044865;28;20314;-49
2022/11/08 09:56:42;;;;;;;7.57;3.40;;;;;;;;;;5050492;28;20063;-49
2022/11/08 09:59:11;;;;;;;5.18;3.00;;;;;;;;;;5049496;28;20482;-51
2022/11/08 10:01:39;;;;;;;6.03;3.00;;;;;;;;;;5050513;28;20056;-52
2022/11/08 10:04:17;;;;;;;9.45;3.78;;;;;;;;;;5050943;28;20132;-51
2022/11/08 10:06:55;;;;;;;7.15;2.70;;;;;;;;;;5051220;28;20064;-49
2022/11/08 10:09:51;;;;;;;6.70;3.03;;;;;;;;;;5050391;28;20053;-49
2022/11/08 10:12:25;;;;;;;7.47;3.38;;;;;;;;;;5042550;28;20061;-49
2022/11/08 10:15:01;;;;;;;10.18;2.97;;;;;;;;;;5051129;28;20458;-49
2022/11/08 10:17:48;;;;;;;7.55;2.97;;;;;;;;;;5036769;28;20490;-47
2022/11/08 10:20:34;;;;;;;4.53;2.35;;;;;;;;;;5040655;28;20047;-47
2022/11/08 10:23:10;;;;;;;9.82;3.25;;;;;;;;;;5036650;28;20497;-48
2022/11/08 10:25:47;;;;;;;7.40;3.22;;;;;;;;;;5035967;28;20057;-48
2022/11/08 10:28:16;;;;;;;7.80;2.75;;;;;;;;;;5047329;28;20060;-49
2022/11/08 10:30:46;;;;;;;6.55;2.80;;;;;;;;;;5047075;28;20084;-49
2022/11/08 10:33:16;;;;;;;9.77;2.88;;;;;;;;;;5045147;28;20060;-49
2022/11/08 10:35:53;;;;;;;7.10;2.78;;;;;;;;;;5045928;28;20067;-49
2022/11/08 10:38:38;;;;;;;6.63;2.88;;;;;;;;;;5051877;28;20458;-51
2022/11/08 10:41:10;;;;;;;7.45;2.85;;;;;;;;;;5037759;28;20053;-49
2022/11/08 10:43:50;;;;;;;4.68;2.35;;;;;;;;;;5051261;28;20118;-49
2022/11/08 10:46:26;;;;;;;5.22;1.90;;;;;;;;;;5049031;28;20041;-49
2022/11/08 10:49:05;;;;;;;6.10;2.42;;;;;;;;;;5054671;28;20041;-49
2022/11/08 10:51:33;;;;;;;4.03;1.80;;;;;;;;;;5052024;28;20052;-49
2022/11/08 10:54:03;;;;;;;5.22;2.05;;;;;;;;;;5047700;28;20045;-48
2022/11/08 10:56:31;;;;;;;9.05;2.47;;;;;;;;;;5046747;28;20055;-50
2022/11/08 10:58:59;;;;;;;4.20;2.30;;;;;;;;;;5037433;28;20406;-51
2022/11/08 11:01:25;;;;;;;5.47;1.85;;;;;;;;;;5035896;28;20140;-50
2022/11/08 11:03:56;;;;;;;4.88;2.20;;;;;;;;;;5047790;28;20132;-53
2022/11/08 11:06:24;;;;;;;5.75;2.22;;;;;;;;;;5042121;28;20053;-51
2022/11/08 11:08:54;;;;;;;6.70;2.65;;;;;;;;;;5046008;28;20056;-49
2022/11/08 11:11:31;;;;;;;5.90;2.42;;;;;;;;;;5046798;28;20060;-51
2022/11/08 11:14:11;;;;;;;7.05;2.58;;;;;;;;;;5045441;28;20759;-51
2022/11/08 11:16:46;;;;;;;6.35;2.47;;;;;;;;;;5040285;28;20513;-52
2022/11/08 11:19:14;;;;;;;4.18;2.40;;;;;;;;;;5043183;28;20072;-54
2022/11/08 11:21:46;;;;;;;6.03;2.35;;;;;;;;;;5043243;28;20057;-50
2022/11/08 11:24:17;;;;;;;7.00;2.70;;;;;;;;;;5040389;28;20045;-51
2022/11/08 11:27:00;;;;;;;8.40;2.70;;;;;;;;;;5046460;28;20146;-51
2022/11/08 11:29:30;;;;;;;6.95;2.42;;;;;;;;;;5035533;28;20081;-49
2022/11/08 11:32:00;;;;;;;7.43;2.92;;;;;;;;;;5038622;28;20057;-48
2022/11/08 11:34:33;;;;;;;11.35;2.75;;;;;;;;;;5042496;28;20107;-49
2022/11/08 11:37:05;;;;;;;6.13;2.83;;;;;;;;;;5050142;28;20060;-48
2022/11/08 11:39:35;;;;;;;6.93;2.13;;;;;;;;;;5047960;28;20052;-49
2022/11/08 11:42:09;;;;;;;8.82;2.80;;;;;;;;;;5046080;28;20048;-48
2022/11/08 11:44:54;;;;;;;6.88;2.45;;;;;;;;;;5039940;28;20068;-49
2022/11/08 11:47:25;;;;;;;7.95;2.60;;;;;;;;;;5039502;28;20049;-49
2022/11/08 11:49:55;;;;;;;10.70;2.80;;;;;;;;;;5038544;28;20055;-54
2022/11/08 11:52:23;;;;;;;6.53;2.65;;;;;;;;;;5036574;28;20063;-49
2022/11/08 11:54:50;;;;;;;6.07;2.70;;;;;;;;;;5044263;28;20060;-48
2022/11/08 11:57:37;;;;;;;4.70;2.28;;;;;;;;;;5048069;28;20044;-49
2022/11/08 12:00:05;;;;;;;10.75;2.92;;;;;;;;;;5046926;28;20077;-48
2022/11/08 12:02:53;;;;;;;7.43;2.55;;;;;;;;;;5049908;28;20057;-49
2022/11/08 12:05:34;;;;;;;6.22;2.35;;;;;;;;;;5040810;28;20045;-52
2022/11/08 12:08:09;;;;;;;5.00;2.50;;;;;;;;;;5051547;28;20053;-50
2022/11/08 12:10:44;;;;;;;8.30;2.53;;;;;;;;;;5048374;28;20387;-53
2022/11/08 12:13:30;;;;;;;9.23;2.95;;;;;;;;;;5047076;28;20056;-53
2022/11/08 12:16:03;;;;;;;9.00;2.88;;;;;;;;;;5046315;28;20465;-51
2022/11/08 12:18:40;;;;;;;7.88;2.75;;;;;;;;;;5043250;28;20060;-53
2022/11/08 12:21:12;;;;;;;5.95;2.95;;;;;;;;;;5047693;28;20315;-52
2022/11/08 12:24:08;;;;;;;6.95;2.50;;;;;;;;;;5052748;28;20045;-51
2022/11/08 12:26:39;;;;;;;8.27;2.63;;;;;;;;;;5045207;28;20057;-50
2022/11/08 12:29:22;;;;;;;8.95;2.72;;;;;;;;;;5045798;28;20049;-51
2022/11/08 12:32:12;;;;;;;7.75;2.72;;;;;;;;;;5046144;28;20056;-49
2022/11/08 12:34:48;;;;;;;6.30;2.78;;;;;;;;;;5049074;28;20053;-49
2022/11/08 12:37:20;;;;;;;6.05;2.47;;;;;;;;;;5045838;28;20110;-48
2022/11/08 12:39:50;;;;;;;5.57;2.20;;;;;;;;;;5042388;28;20045;-48
2022/11/08 12:42:26;;;;;;;5.40;2.38;;;;;;;;;;5036607;28;20144;-49
2022/11/08 12:45:07;;;;;;;9.70;2.58;;;;;;;;;;5039382;28;20639;-49
2022/11/08 12:47:54;;;;;;;6.40;2.53;;;;;;;;;;5037811;28;20053;-48
2022/11/08 12:50:24;;;;;;;7.93;2.55;;;;;;;;;;5042169;28;20049;-48
2022/11/08 12:53:12;;;;;;;8.50;3.40;;;;;;;;;;5050992;28;20049;-48
2022/11/08 12:56:01;;;;;;;4.32;2.40;;;;;;;;;;5036624;28;20421;-48
2022/11/08 12:58:35;;;;;;;8.25;2.40;;;;;;;;;;5043525;28;20048;-50
2022/11/08 13:01:09;;;;;;;6.18;2.70;;;;;;;;;;5044954;28;20119;-46
2022/11/08 13:03:48;;;;;;;9.63;4.30;;;;;;;;;;5050071;28;20061;-49
2022/11/08 13:06:18;;;;;;;16.23;5.78;;;;;;;;;;5043815;28;20132;-50
2022/11/08 13:08:49;;;;;;;17.55;5.50;;;;;;;;;;5033091;28;20057;-51
2022/11/08 13:11:21;;;;;;;14.55;3.95;;;;;;;;;;5040052;28;20045;-49
2022/11/08 13:13:51;;;;;;;9.48;4.32;;;;;;;;;;5042539;28;20098;-52
2022/11/08 13:16:22;;;;;;;22.20;3.95;;;;;;;;;;5047729;28;20051;-50
2022/11/08 13:18:53;;;;;;;8.70;3.13;;;;;;;;;;5050383;28;20454;-49
2022/11/08 13:21:36;;;;;;;12.40;3.90;;;;;;;;;;5049710;28;20056;-48
2022/11/08 13:24:23;;;;;;;11.80;3.60;;;;;;;;;;5036212;28;20051;-48
2022/11/08 13:26:49;;;;;;;5.65;2.90;;;;;;;;;;5043997;28;20075;-50
2022/11/08 13:29:26;;;;;;;14.85;4.15;;;;;;;;;;5037060;28;20060;-48
2022/11/08 13:31:54;;;;;;;8.32;3.65;;;;;;;;;;5043079;28;20087;-48
2022/11/08 13:34:40;;;;;;;11.68;4.45;;;;;;;;;;5045320;28;20073;-49
2022/11/08 13:37:19;;;;;;;8.25;3.38;;;;;;;;;;5037948;28;20049;-52
2022/11/08 13:40:02;;;;;;;11.90;3.25;;;;;;;;;;5042796;28;20053;-53
2022/11/08 13:42:31;;;;;;;6.45;2.80;;;;;;;;;;5043214;28;20064;-46
2022/11/08 13:45:15;;;;;;;7.32;3.15;;;;;;;;;;5037804;28;20064;-47
2022/11/08 13:47:59;;;;;;;6.82;3.00;;;;;;;;;;5044041;28;20053;-48
2022/11/08 13:50:46;;;;;;;9.32;2.45;;;;;;;;;;5042360;28;20518;-47
2022/11/08 13:53:26;;;;;;;6.85;2.40;;;;;;;;;;5043935;28;20385;-47
2022/11/08 13:56:08;;;;;;;9.50;2.70;;;;;;;;;;5051305;28;20045;-49
2022/11/08 13:58:44;;;;;;;7.78;2.67;;;;;;;;;;5038328;28;20076;-51
2022/11/08 14:01:27;;;;;;;9.05;3.08;;;;;;;;;;5047569;28;20053;-49
2022/11/08 14:03:55;;;;;;;6.97;2.42;;;;;;;;;;5046231;28;20053;-47
2022/11/08 14:06:29;;;;;;;14.77;2.85;;;;;;;;;;5040023;28;20061;-48
2022/11/08 14:09:03;;;;;;;8.45;3.10;;;;;;;;;;5033901;28;20053;-48
2022/11/08 14:11:44;;;;;;;6.43;2.97;;;;;;;;;;5041905;28;20050;-48
2022/11/08 14:14:33;;;;;;;7.05;2.85;;;;;;;;;;5043115;28;20055;-48
2022/11/08 14:17:18;;;;;;;13.00;3.63;;;;;;;;;;5045248;28;20057;-48
2022/11/08 14:19:48;;;;;;;7.53;2.90;;;;;;;;;;5045605;28;20077;-51
2022/11/08 14:22:17;;;;;;;8.18;3.28;;;;;;;;;;5049761;28;20053;-50
2022/11/08 14:24:54;;;;;;;12.23;3.47;;;;;;;;;;5040880;28;20586;-51
2022/11/08 14:27:35;;;;;;;9.70;2.88;;;;;;;;;;5043954;28;20071;-47
2022/11/08 14:30:04;;;;;;;7.78;2.30;;;;;;;;;;5041764;28;20378;-48
2022/11/08 14:32:33;;;;;;;7.10;2.90;;;;;;;;;;5042579;28;20413;-47
2022/11/08 14:35:16;;;;;;;11.00;3.28;;;;;;;;;;5048838;28;20057;-49
2022/11/08 14:37:44;;;;;;;6.00;3.38;;;;;;;;;;5053817;28;20053;-49
2022/11/08 14:40:23;;;;;;;6.78;2.70;;;;;;;;;;5040275;28;20544;-49
2022/11/08 14:42:53;;;;;;;7.68;3.00;;;;;;;;;;5037602;28;20056;-48
2022/11/08 14:45:22;;;;;;;9.93;3.15;;;;;;;;;;5047572;28;20053;-48
2022/11/08 14:48:00;;;;;;;5.63;2.50;;;;;;;;;;5038139;28;20394;-49
2022/11/08 14:50:30;;;;;;;8.38;3.00;;;;;;;;;;5048105;28;20052;-50
2022/11/08 14:53:18;;;;;;;8.73;2.55;;;;;;;;;;5045472;28;20059;-50
2022/11/08 14:56:02;;;;;;;7.65;3.00;;;;;;;;;;5053395;28;20064;-52
2022/11/08 14:58:31;;;;;;;3.65;2.38;;;;;;;;;;5049082;28;20445;-49
2022/11/08 15:01:08;;;;;;;4.93;2.67;;;;;;;;;;5038387;28;20072;-50
2022/11/08 15:03:36;;;;;;;5.65;2.75;;;;;;;;;;5051174;28;20056;-48
2022/11/08 15:06:04;;;;;;;7.68;2.80;;;;;;;;;;5051754;28;20064;-48
2022/11/08 15:08:35;;;;;;;7.95;3.05;;;;;;;;;;5047332;28;20060;-48
2022/11/08 15:11:09;;;;;;;5.57;3.40;;;;;;;;;;5040953;28;20055;-48
2022/11/08 15:13:42;;;;;;;8.23;3.00;;;;;;;;;;5047506;28;20064;-49
2022/11/08 15:16:09;;;;;;;5.90;2.80;;;;;;;;;;5048276;28;20159;-48
2022/11/08 15:18:38;;;;;;;5.63;2.92;;;;;;;;;;5053107;28;20520;-48
2022/11/08 15:21:07;;;;;;;6.90;3.88;;;;;;;;;;5051473;28;20042;-50
2022/11/08 15:23:42;;;;;;;11.57;3.72;;;;;;;;;;5044838;28;20049;-49
2022/11/08 15:26:27;;;;;;;9.63;4.03;;;;;;;;;;5048269;28;20049;-49
2022/11/08 15:29:15;;;;;;;12.13;4.47;;;;;;;;;;5049569;28;20052;-48
2022/11/08 15:31:46;;;;;;;11.85;4.25;;;;;;;;;;5044965;28;20057;-48
2022/11/08 15:34:19;;;;;;;8.20;4.53;;;;;;;;;;5051891;28;20049;-48